createdAt,value
2019-01-30T00:00:32.219Z,3.40
2019-01-30T00:03:00.744Z,3.27
2019-01-30T00:05:28.970Z,3.30
2019-01-30T00:07:57.213Z,3.47
2019-01-30T00:10:25.449Z,3.57
2019-01-30T00:12:53.694Z,3.37
2019-01-30T00:15:21.925Z,2.93
2019-01-30T00:17:50.169Z,3.20
2019-01-30T00:20:18.413Z,3.37
2019-01-30T00:22:46.661Z,3.50
2019-01-30T00:25:14.973Z,3.40
2019-01-30T00:27:43.225Z,3.23
2019-01-30T00:30:19.826Z,3.60
2019-01-30T00:32:48.069Z,3.10
2019-01-30T00:35:16.301Z,3.13
2019-01-30T00:37:44.617Z,3.20
2019-01-30T00:40:18.616Z,3.33
2019-01-30T00:42:46.861Z,3.30
2019-01-30T00:45:17.429Z,3.10
2019-01-30T00:47:45.726Z,3.30
2019-01-30T00:50:18.629Z,3.10
2019-01-30T00:52:46.869Z,3.20
2019-01-30T00:55:15.113Z,3.60
2019-01-30T00:57:43.354Z,2.93
2019-01-30T01:00:17.656Z,3.03
2019-01-30T01:02:45.893Z,2.93
2019-01-30T01:05:14.300Z,3.50
2019-01-30T01:07:42.809Z,3.00
2019-01-30T01:10:14.149Z,3.10
2019-01-30T01:12:42.389Z,3.47
2019-01-30T01:15:12.913Z,3.37
2019-01-30T01:17:41.157Z,3.17
2019-01-30T01:20:12.193Z,3.27
2019-01-30T01:22:41.112Z,3.33
2019-01-30T01:25:12.082Z,3.33
2019-01-30T01:27:40.498Z,3.23
2019-01-30T01:30:25.299Z,3.33
2019-01-30T01:32:50.353Z,2.80
2019-01-30T01:35:18.601Z,3.20
2019-01-30T01:37:46.845Z,2.70
2019-01-30T01:40:16.497Z,3.03
2019-01-30T01:42:44.824Z,3.33
2019-01-30T01:45:15.298Z,3.47
2019-01-30T01:47:43.535Z,3.23
2019-01-30T01:50:14.317Z,3.03
2019-01-30T01:52:42.550Z,2.93
2019-01-30T01:55:12.137Z,2.97
2019-01-30T01:57:40.385Z,3.13
2019-01-30T02:00:16.602Z,2.73
2019-01-30T02:02:44.861Z,3.50
2019-01-30T02:05:18.002Z,2.90
2019-01-30T02:07:46.240Z,3.03
2019-01-30T02:10:19.311Z,3.17
2019-01-30T02:12:47.711Z,3.00
2019-01-30T02:15:17.993Z,3.53
2019-01-30T02:17:46.224Z,3.17
2019-01-30T02:20:32.500Z,2.70
2019-01-30T02:23:00.719Z,2.80
2019-01-30T02:25:28.976Z,3.07
2019-01-30T02:27:57.197Z,2.80
2019-01-30T02:30:27.685Z,2.80
2019-01-30T02:32:55.932Z,2.80
2019-01-30T02:35:24.165Z,2.87
2019-01-30T02:37:52.971Z,3.10
2019-01-30T02:40:22.316Z,2.97
2019-01-30T02:42:50.550Z,3.03
2019-01-30T02:45:21.148Z,2.87
2019-01-30T02:47:49.383Z,3.20
2019-01-30T02:50:18.978Z,3.20
2019-01-30T02:52:47.490Z,2.60
2019-01-30T02:55:17.172Z,3.10
2019-01-30T02:57:45.406Z,2.70
2019-01-30T03:00:25.681Z,3.23
2019-01-30T03:02:53.924Z,2.80
2019-01-30T03:05:22.161Z,2.70
2019-01-30T03:07:50.392Z,2.83
2019-01-30T03:10:19.730Z,2.93
2019-01-30T03:12:47.990Z,2.77
2019-01-30T03:15:17.586Z,3.07
2019-01-30T03:17:45.817Z,2.97
2019-01-30T03:20:22.444Z,3.27
2019-01-30T03:22:50.675Z,3.27
2019-01-30T03:25:20.658Z,2.40
2019-01-30T03:27:48.893Z,2.83
2019-01-30T03:30:24.935Z,2.90
2019-01-30T03:32:53.176Z,2.70
2019-01-30T03:35:21.429Z,2.57
2019-01-30T03:37:49.653Z,3.47
2019-01-30T03:40:19.345Z,3.13
2019-01-30T03:42:47.576Z,2.60
2019-01-30T03:45:17.962Z,2.63
2019-01-30T03:47:46.193Z,3.13
2019-01-30T03:50:15.169Z,2.50
2019-01-30T03:52:43.416Z,2.60
2019-01-30T03:55:13.812Z,2.50
2019-01-30T03:57:42.045Z,2.27
2019-01-30T04:00:16.273Z,2.57
2019-01-30T04:02:44.511Z,2.33
2019-01-30T04:05:12.746Z,2.77
2019-01-30T04:07:41.017Z,2.83
2019-01-30T04:10:20.630Z,2.83
2019-01-30T04:12:48.882Z,2.60
2019-01-30T04:15:17.140Z,2.80
2019-01-30T04:17:45.503Z,2.37
2019-01-30T04:20:16.253Z,2.77
2019-01-30T04:22:44.521Z,2.57
2019-01-30T04:25:12.768Z,2.77
2019-01-30T04:27:41.015Z,2.50
2019-01-30T04:30:15.364Z,2.37
2019-01-30T04:32:43.817Z,2.57
2019-01-30T04:35:12.045Z,2.20
2019-01-30T04:37:40.285Z,2.70
2019-01-30T04:40:12.126Z,2.60
2019-01-30T04:42:40.434Z,2.50
2019-01-30T04:45:17.285Z,2.40
2019-01-30T04:47:45.801Z,2.70
2019-01-30T04:50:14.031Z,2.40
2019-01-30T04:52:42.553Z,2.23
2019-01-30T04:55:10.966Z,2.70
2019-01-30T04:57:39.210Z,2.70
2019-01-30T05:00:10.779Z,2.77
2019-01-30T05:02:39.051Z,2.80
2019-01-30T05:05:09.526Z,2.50
2019-01-30T05:07:37.776Z,2.67
2019-01-30T05:10:08.841Z,2.73
2019-01-30T05:12:37.101Z,2.53
2019-01-30T05:15:08.598Z,2.57
2019-01-30T05:17:36.833Z,2.67
2019-01-30T05:20:09.826Z,2.60
2019-01-30T05:22:38.145Z,2.67
2019-01-30T05:25:07.934Z,3.60
2019-01-30T05:27:36.182Z,3.93
2019-01-30T05:30:12.965Z,4.10
2019-01-30T05:32:41.222Z,3.80
2019-01-30T05:35:09.485Z,4.53
2019-01-30T05:37:37.733Z,4.93
2019-01-30T05:40:09.230Z,4.50
2019-01-30T05:42:37.461Z,5.03
2019-01-30T05:45:09.150Z,4.97
2019-01-30T05:47:37.694Z,4.27
2019-01-30T05:50:07.764Z,5.00
2019-01-30T05:52:35.993Z,4.40
2019-01-30T05:55:05.877Z,4.80
2019-01-30T05:57:34.145Z,4.43
2019-01-30T06:00:02.389Z,5.23
2019-01-30T06:02:30.622Z,4.27
2019-01-30T06:04:58.867Z,4.30
2019-01-30T06:07:27.098Z,3.97
2019-01-30T06:09:55.364Z,4.67
2019-01-30T06:12:23.595Z,4.73
2019-01-30T06:14:51.846Z,5.00
2019-01-30T06:17:20.069Z,3.93
2019-01-30T06:19:48.313Z,3.53
2019-01-30T06:22:16.545Z,3.17
2019-01-30T06:24:44.813Z,3.30
2019-01-30T06:27:13.034Z,3.27
2019-01-30T06:29:41.738Z,2.90
2019-01-30T06:32:09.973Z,3.10
2019-01-30T06:34:38.210Z,3.90
2019-01-30T06:37:06.473Z,3.70
2019-01-30T06:39:34.702Z,3.50
2019-01-30T06:42:02.953Z,3.17
2019-01-30T06:44:31.189Z,2.80
2019-01-30T06:46:59.481Z,3.67
2019-01-30T06:49:27.716Z,2.90
2019-01-30T06:51:55.985Z,3.20
2019-01-30T06:54:24.221Z,3.13
2019-01-30T06:56:52.462Z,3.00
2019-01-30T06:59:20.693Z,2.80
2019-01-30T07:01:48.942Z,3.40
2019-01-30T07:04:17.182Z,2.87
2019-01-30T07:06:45.453Z,3.00
2019-01-30T07:09:15.885Z,2.47
2019-01-30T07:11:44.137Z,2.97
2019-01-30T07:14:12.370Z,3.40
2019-01-30T07:16:40.621Z,2.47
2019-01-30T07:19:08.851Z,2.30
2019-01-30T07:21:37.089Z,2.60
2019-01-30T07:24:05.333Z,2.70
2019-01-30T07:26:33.587Z,2.57
2019-01-30T07:29:01.840Z,2.20
2019-01-30T07:31:30.077Z,2.63
2019-01-30T07:33:58.309Z,2.77
2019-01-30T07:36:26.806Z,2.50
2019-01-30T07:38:55.045Z,2.27
2019-01-30T07:41:23.316Z,2.10
2019-01-30T07:43:51.535Z,2.53
2019-01-30T07:46:19.777Z,2.27
2019-01-30T07:48:48.009Z,2.70
2019-01-30T07:51:16.301Z,2.60
2019-01-30T07:53:44.557Z,2.53
2019-01-30T07:56:12.789Z,2.60
2019-01-30T07:58:41.034Z,2.20
2019-01-30T08:01:09.269Z,2.23
2019-01-30T08:03:39.056Z,2.47
2019-01-30T08:06:07.432Z,2.50
2019-01-30T08:08:35.696Z,2.13
2019-01-30T08:11:03.921Z,1.97
2019-01-30T08:13:32.170Z,2.30
2019-01-30T08:16:00.405Z,2.37
2019-01-30T08:18:29.601Z,2.20
2019-01-30T08:20:57.829Z,2.33
2019-01-30T08:23:26.346Z,1.93
2019-01-30T08:25:54.729Z,2.40
2019-01-30T08:28:23.663Z,2.10
2019-01-30T08:30:52.755Z,2.80
2019-01-30T08:33:21.645Z,2.10
2019-01-30T08:35:50.177Z,2.30
2019-01-30T08:38:18.429Z,2.20
2019-01-30T08:40:46.662Z,2.27
2019-01-30T08:43:14.938Z,2.00
2019-01-30T08:45:43.166Z,2.17
2019-01-30T08:48:11.429Z,2.17
2019-01-30T08:50:39.681Z,2.00
2019-01-30T08:53:07.942Z,2.20
2019-01-30T08:55:36.177Z,1.93
2019-01-30T08:58:04.549Z,1.77
2019-01-30T09:00:32.785Z,2.00
2019-01-30T09:03:01.013Z,2.37
2019-01-30T09:05:29.253Z,2.40
2019-01-30T09:07:57.486Z,2.00
2019-01-30T09:10:28.133Z,1.60
2019-01-30T09:12:56.390Z,2.10
2019-01-30T09:15:26.373Z,1.97
2019-01-30T09:17:54.604Z,1.90
2019-01-30T09:20:24.089Z,2.23
2019-01-30T09:22:52.321Z,2.20
2019-01-30T09:25:23.279Z,1.70
2019-01-30T09:27:51.509Z,2.07
2019-01-30T09:30:21.905Z,1.93
2019-01-30T09:32:50.176Z,2.07
2019-01-30T09:35:18.502Z,1.83
2019-01-30T09:37:46.732Z,2.37
2019-01-30T09:40:17.129Z,1.87
2019-01-30T09:42:45.882Z,1.87
2019-01-30T09:45:16.297Z,1.87
2019-01-30T09:47:44.536Z,1.93
2019-01-30T09:50:15.578Z,1.80
2019-01-30T09:52:43.830Z,1.90
2019-01-30T09:55:13.905Z,1.80
2019-01-30T09:57:42.150Z,2.00
2019-01-30T10:00:34.674Z,1.83
2019-01-30T10:03:02.906Z,2.00
2019-01-30T10:05:31.173Z,2.03
2019-01-30T10:07:59.401Z,2.23
2019-01-30T10:10:29.881Z,2.10
2019-01-30T10:12:58.128Z,2.40
2019-01-30T10:15:34.751Z,1.90
2019-01-30T10:18:02.979Z,2.10
2019-01-30T10:20:32.561Z,1.80
2019-01-30T10:23:00.792Z,2.10
2019-01-30T10:25:29.057Z,1.93
2019-01-30T10:27:57.302Z,1.73
2019-01-30T10:30:34.280Z,1.90
2019-01-30T10:33:02.525Z,2.00
2019-01-30T10:35:30.750Z,1.80
2019-01-30T10:37:58.989Z,1.67
2019-01-30T10:40:27.225Z,1.80
2019-01-30T10:42:57.221Z,1.73
2019-01-30T10:45:25.449Z,1.63
2019-01-30T10:47:53.685Z,1.70
2019-01-30T10:50:24.418Z,1.70
2019-01-30T10:52:52.681Z,2.03
2019-01-30T10:55:23.072Z,2.17
2019-01-30T10:57:53.350Z,1.77
2019-01-30T11:00:24.106Z,1.57
2019-01-30T11:02:52.346Z,1.87
2019-01-30T11:05:20.589Z,1.57
2019-01-30T11:07:48.851Z,1.73
2019-01-30T11:10:20.972Z,2.00
2019-01-30T11:12:49.213Z,2.13
2019-01-30T11:15:20.752Z,1.50
2019-01-30T11:17:48.993Z,1.83
2019-01-30T11:20:22.131Z,1.53
2019-01-30T11:22:53.149Z,1.80
2019-01-30T11:25:29.326Z,1.80
2019-01-30T11:27:57.591Z,1.70
2019-01-30T11:30:25.817Z,1.53
2019-01-30T11:32:55.571Z,1.87
2019-01-30T11:35:23.973Z,2.00
2019-01-30T11:37:52.214Z,1.70
2019-01-30T11:40:21.881Z,1.80
2019-01-30T11:42:50.120Z,1.70
2019-01-30T11:45:23.989Z,1.60
2019-01-30T11:47:52.233Z,1.90
2019-01-30T11:50:20.469Z,1.97
2019-01-30T11:52:48.709Z,1.57
2019-01-30T11:55:18.962Z,1.50
2019-01-30T11:57:47.650Z,1.87
2019-01-30T12:00:20.355Z,2.00
2019-01-30T12:02:48.706Z,1.80
2019-01-30T12:05:18.256Z,1.80
2019-01-30T12:07:46.489Z,1.70
2019-01-30T12:10:15.298Z,1.90
2019-01-30T12:12:44.096Z,1.53
2019-01-30T12:15:17.929Z,1.70
2019-01-30T12:17:46.153Z,1.53
2019-01-30T12:20:14.398Z,1.83
2019-01-30T12:22:42.677Z,1.70
2019-01-30T12:25:18.857Z,1.57
2019-01-30T12:27:47.094Z,1.57
2019-01-30T12:30:23.950Z,1.80
2019-01-30T12:32:52.180Z,1.70
2019-01-30T12:35:20.457Z,1.80
2019-01-30T12:37:48.697Z,1.60
2019-01-30T12:40:19.441Z,1.50
2019-01-30T12:42:47.696Z,1.47
2019-01-30T12:45:18.466Z,1.70
2019-01-30T12:47:46.702Z,1.40
2019-01-30T12:50:14.965Z,1.70
2019-01-30T12:52:43.213Z,1.80
2019-01-30T12:55:11.989Z,1.70
2019-01-30T12:57:40.246Z,1.70
2019-01-30T13:00:11.985Z,1.90
2019-01-30T13:02:40.230Z,1.97
2019-01-30T13:05:09.332Z,2.00
2019-01-30T13:07:37.641Z,2.17
2019-01-30T13:10:08.250Z,2.10
2019-01-30T13:12:36.501Z,2.00
2019-01-30T13:15:10.413Z,2.07
2019-01-30T13:17:38.645Z,2.00
2019-01-30T13:20:12.762Z,1.73
2019-01-30T13:22:40.993Z,1.57
2019-01-30T13:25:11.242Z,1.70
2019-01-30T13:27:39.478Z,1.70
2019-01-30T13:30:13.642Z,1.90
2019-01-30T13:32:41.901Z,2.20
2019-01-30T13:35:10.141Z,1.70
2019-01-30T13:37:38.391Z,1.90
2019-01-30T13:40:09.922Z,1.57
2019-01-30T13:42:38.154Z,1.50
2019-01-30T13:45:09.450Z,1.80
2019-01-30T13:47:37.686Z,1.80
2019-01-30T13:50:09.276Z,1.47
2019-01-30T13:52:37.513Z,1.77
2019-01-30T13:55:07.781Z,1.73
2019-01-30T13:57:36.055Z,1.60
2019-01-30T14:00:06.754Z,1.40
2019-01-30T14:02:34.986Z,1.77
2019-01-30T14:05:03.490Z,1.70
2019-01-30T14:07:31.739Z,1.60
2019-01-30T14:09:59.992Z,1.50
2019-01-30T14:12:28.253Z,1.83
2019-01-30T14:14:56.493Z,1.40
2019-01-30T14:17:24.764Z,1.60
2019-01-30T14:19:53.009Z,1.50
2019-01-30T14:22:21.269Z,1.60
2019-01-30T14:24:49.533Z,1.60
2019-01-30T14:27:17.797Z,1.70
2019-01-30T14:29:46.077Z,2.07
2019-01-30T14:32:15.007Z,1.80
2019-01-30T14:34:43.467Z,2.00
2019-01-30T14:37:11.715Z,2.07
2019-01-30T14:39:39.990Z,1.90
2019-01-30T14:42:08.344Z,1.90
2019-01-30T14:44:36.667Z,1.60
2019-01-30T14:47:04.941Z,1.50
2019-01-30T14:49:33.165Z,2.03
2019-01-30T14:52:01.410Z,2.10
2019-01-30T14:54:29.765Z,1.97
2019-01-30T14:56:58.039Z,1.40
2019-01-30T14:59:26.301Z,1.60
2019-01-30T15:01:54.589Z,1.97
2019-01-30T15:04:22.846Z,1.63
2019-01-30T15:06:51.541Z,1.70
2019-01-30T15:09:19.835Z,1.53
2019-01-30T15:11:48.089Z,1.47
2019-01-30T15:14:16.644Z,1.60
2019-01-30T15:16:45.215Z,1.73
2019-01-30T15:19:13.453Z,1.87
2019-01-30T15:21:41.691Z,1.57
2019-01-30T15:24:09.930Z,1.73
2019-01-30T15:26:38.161Z,1.50
2019-01-30T15:29:06.405Z,1.50
2019-01-30T15:31:34.660Z,1.80
2019-01-30T15:34:02.902Z,1.50
2019-01-30T15:36:31.134Z,1.37
2019-01-30T15:38:59.386Z,1.57
2019-01-30T15:41:27.622Z,1.70
2019-01-30T15:43:55.861Z,1.63
2019-01-30T15:46:24.145Z,1.70
2019-01-30T15:48:52.414Z,1.63
2019-01-30T15:51:20.646Z,1.33
2019-01-30T15:53:48.891Z,1.40
2019-01-30T15:56:17.218Z,1.33
2019-01-30T15:58:45.460Z,1.70
2019-01-30T16:01:13.698Z,1.70
2019-01-30T16:03:41.947Z,1.50
2019-01-30T16:06:10.179Z,1.37
2019-01-30T16:08:38.425Z,1.70
2019-01-30T16:11:06.684Z,1.90
2019-01-30T16:13:34.934Z,1.47
2019-01-30T16:16:04.499Z,1.60
2019-01-30T16:18:32.769Z,1.40
2019-01-30T16:21:01.000Z,1.40
2019-01-30T16:23:29.248Z,1.20
2019-01-30T16:25:57.496Z,1.50
2019-01-30T16:28:25.738Z,1.47
2019-01-30T16:30:53.997Z,1.40
2019-01-30T16:33:22.346Z,1.40
2019-01-30T16:35:56.021Z,1.30
2019-01-30T16:38:20.627Z,1.40
2019-01-30T16:40:48.860Z,1.43
2019-01-30T16:43:17.094Z,1.30
2019-01-30T16:45:45.333Z,1.43
2019-01-30T16:48:13.581Z,1.50
2019-01-30T16:50:41.832Z,1.43
2019-01-30T16:53:10.057Z,1.63
2019-01-30T16:55:38.302Z,1.30
2019-01-30T16:58:07.075Z,1.43
2019-01-30T17:00:36.757Z,1.00
2019-01-30T17:03:07.055Z,1.40
2019-01-30T17:05:35.354Z,1.30
2019-01-30T17:08:03.590Z,1.40
2019-01-30T17:10:31.841Z,1.40
2019-01-30T17:13:00.074Z,1.17
2019-01-30T17:15:39.564Z,1.20
2019-01-30T17:18:09.555Z,1.57
2019-01-30T17:20:39.533Z,1.30
2019-01-30T17:23:07.797Z,1.37
2019-01-30T17:25:36.102Z,1.27
2019-01-30T17:28:04.709Z,1.63
2019-01-30T17:30:35.657Z,1.60
2019-01-30T17:33:04.285Z,1.40
2019-01-30T17:35:32.545Z,1.37
2019-01-30T17:38:00.808Z,1.30
2019-01-30T17:40:29.724Z,1.43
2019-01-30T17:42:57.959Z,1.30
2019-01-30T17:45:26.269Z,1.40
2019-01-30T17:47:54.527Z,1.40
2019-01-30T17:50:25.768Z,1.40
2019-01-30T17:52:54.014Z,1.30
2019-01-30T17:55:22.249Z,1.40
2019-01-30T17:57:50.493Z,1.40
2019-01-30T18:00:29.088Z,1.50
2019-01-30T18:02:57.333Z,1.30
2019-01-30T18:05:25.561Z,1.20
2019-01-30T18:07:54.090Z,1.40
2019-01-30T18:10:22.322Z,1.30
2019-01-30T18:12:50.570Z,1.30
2019-01-30T18:15:18.826Z,1.53
2019-01-30T18:17:47.067Z,1.33
2019-01-30T18:20:22.146Z,1.63
2019-01-30T18:22:50.393Z,1.07
2019-01-30T18:25:19.781Z,1.33
2019-01-30T18:27:48.278Z,1.30
2019-01-30T18:30:20.332Z,1.20
2019-01-30T18:32:48.584Z,1.60
2019-01-30T18:35:16.826Z,1.50
2019-01-30T18:37:45.261Z,1.60
2019-01-30T18:40:22.560Z,1.10
2019-01-30T18:42:50.965Z,1.20
2019-01-30T18:45:21.736Z,1.63
2019-01-30T18:47:49.974Z,1.40
2019-01-30T18:50:20.150Z,1.50
2019-01-30T18:52:48.394Z,1.23
2019-01-30T18:55:16.637Z,1.50
2019-01-30T18:57:44.915Z,1.50
2019-01-30T19:00:37.045Z,1.70
2019-01-30T19:03:07.745Z,1.33
2019-01-30T19:05:35.979Z,1.40
2019-01-30T19:08:04.385Z,1.30
2019-01-30T19:10:32.622Z,1.47
2019-01-30T19:13:00.871Z,1.77
2019-01-30T19:15:30.249Z,1.33
2019-01-30T19:17:58.493Z,1.53
2019-01-30T19:20:38.117Z,1.53
2019-01-30T19:23:07.142Z,1.33
2019-01-30T19:25:35.614Z,1.20
2019-01-30T19:28:04.030Z,1.67
2019-01-30T19:30:32.741Z,1.40
2019-01-30T19:33:01.004Z,1.20
2019-01-30T19:35:29.228Z,1.60
2019-01-30T19:37:57.466Z,1.10
2019-01-30T19:40:25.720Z,1.30
2019-01-30T19:42:54.010Z,1.40
2019-01-30T19:45:27.373Z,1.50
2019-01-30T19:47:55.609Z,1.40
2019-01-30T19:50:30.940Z,1.20
2019-01-30T19:53:01.099Z,1.20
2019-01-30T19:55:29.337Z,1.30
2019-01-30T19:57:57.638Z,1.10
2019-01-30T20:00:34.413Z,1.43
2019-01-30T20:03:05.654Z,1.00
2019-01-30T20:05:33.901Z,1.00
2019-01-30T20:08:02.143Z,1.40
2019-01-30T20:10:33.716Z,1.27
2019-01-30T20:13:01.969Z,1.10
2019-01-30T20:15:30.649Z,1.13
2019-01-30T20:17:58.877Z,1.00
2019-01-30T20:20:27.146Z,1.40
2019-01-30T20:22:55.378Z,1.40
2019-01-30T20:25:29.278Z,1.13
2019-01-30T20:27:57.513Z,1.20
2019-01-30T20:30:25.793Z,1.30
2019-01-30T20:32:54.089Z,0.87
2019-01-30T20:35:22.327Z,1.10
2019-01-30T20:37:50.589Z,1.10
2019-01-30T20:40:20.895Z,1.20
2019-01-30T20:42:49.140Z,1.20
2019-01-30T20:45:17.381Z,1.00
2019-01-30T20:47:45.621Z,1.33
2019-01-30T20:50:21.882Z,1.10
2019-01-30T20:52:50.128Z,1.13
2019-01-30T20:55:18.602Z,1.13
2019-01-30T20:57:47.189Z,1.13
2019-01-30T21:00:26.425Z,1.13
2019-01-30T21:02:54.653Z,1.37
2019-01-30T21:05:22.909Z,3.33
2019-01-30T21:07:51.146Z,11.47
2019-01-30T21:10:28.064Z,13.23
2019-01-30T21:12:56.309Z,11.40
2019-01-30T21:15:24.569Z,9.90
2019-01-30T21:17:52.802Z,9.93
2019-01-30T21:20:21.057Z,9.63
2019-01-30T21:22:49.298Z,8.50
2019-01-30T21:25:22.337Z,8.90
2019-01-30T21:27:50.586Z,8.40
2019-01-30T21:30:24.745Z,8.00
2019-01-30T21:32:52.989Z,8.20
2019-01-30T21:35:21.229Z,8.47
2019-01-30T21:37:49.502Z,7.77
2019-01-30T21:40:19.079Z,7.43
2019-01-30T21:42:48.115Z,7.77
2019-01-30T21:45:19.600Z,7.80
2019-01-30T21:47:47.849Z,6.77
2019-01-30T21:50:16.269Z,7.33
2019-01-30T21:52:44.532Z,7.20
2019-01-30T21:55:15.874Z,6.90
2019-01-30T21:57:44.117Z,7.30
2019-01-30T22:00:17.891Z,7.27
2019-01-30T22:02:46.155Z,6.83
2019-01-30T22:05:14.567Z,7.03
2019-01-30T22:07:42.810Z,6.60
2019-01-30T22:10:16.657Z,6.40
2019-01-30T22:12:45.065Z,6.83
2019-01-30T22:15:15.564Z,6.87
2019-01-30T22:17:43.895Z,6.60
2019-01-30T22:20:17.557Z,6.60
2019-01-30T22:22:45.802Z,6.30
2019-01-30T22:25:20.428Z,6.33
2019-01-30T22:27:46.262Z,6.70
2019-01-30T22:30:23.614Z,6.37
2019-01-30T22:32:48.014Z,5.87
2019-01-30T22:35:16.256Z,5.87
2019-01-30T22:37:44.497Z,6.60
2019-01-30T22:40:14.278Z,6.43
2019-01-30T22:42:43.194Z,5.67
2019-01-30T22:45:16.816Z,6.47
2019-01-30T22:47:45.182Z,6.40
2019-01-30T22:50:14.957Z,6.30
2019-01-30T22:52:43.199Z,6.20
2019-01-30T22:55:13.277Z,6.03
2019-01-30T22:57:41.550Z,6.43
2019-01-30T23:00:22.286Z,5.90
2019-01-30T23:02:50.854Z,5.90
2019-01-30T23:05:22.421Z,6.30
2019-01-30T23:07:53.682Z,5.90
2019-01-30T23:10:25.245Z,5.93
2019-01-30T23:13:05.866Z,5.53
2019-01-30T23:15:46.014Z,5.63
2019-01-30T23:18:29.397Z,5.73
2019-01-30T23:21:06.725Z,5.73
2019-01-30T23:23:57.278Z,5.50
2019-01-30T23:26:37.687Z,5.93
2019-01-30T23:29:36.605Z,5.83
2019-01-30T23:32:13.864Z,5.73
2019-01-30T23:34:57.358Z,4.90
2019-01-30T23:37:29.012Z,5.20
2019-01-30T23:40:03.198Z,5.17
2019-01-30T23:42:43.785Z,5.37
2019-01-30T23:45:21.454Z,5.40
2019-01-30T23:48:07.311Z,5.10
2019-01-30T23:50:44.518Z,6.00
2019-01-30T23:53:27.633Z,5.47
2019-01-30T23:56:05.117Z,5.00
2019-01-30T23:58:36.713Z,5.00
